createdAt,value
2016-12-21T00:00:59.214Z,0
2016-12-21T00:01:59.273Z,0
2016-12-21T00:02:59.327Z,0
2016-12-21T00:03:59.386Z,0
2016-12-21T00:04:59.757Z,0
2016-12-21T00:05:59.497Z,0
2016-12-21T00:06:59.551Z,0
2016-12-21T00:07:59.610Z,0
2016-12-21T00:08:59.673Z,0
2016-12-21T00:10:00.026Z,0
2016-12-21T00:10:59.784Z,0
2016-12-21T00:11:59.831Z,0
2016-12-21T00:12:59.892Z,0
2016-12-21T00:13:59.950Z,0
2016-12-21T00:15:00.005Z,0
2016-12-21T00:16:00.061Z,0
2016-12-21T00:17:00.119Z,0
2016-12-21T00:18:00.173Z,0
2016-12-21T00:19:00.230Z,0
2016-12-21T00:20:00.286Z,0
2016-12-21T00:21:00.345Z,0
2016-12-21T00:22:00.404Z,0
2016-12-21T00:23:00.762Z,0
2016-12-21T00:24:00.514Z,0
2016-12-21T00:25:00.571Z,0
2016-12-21T00:26:00.629Z,0
2016-12-21T00:27:00.684Z,0
2016-12-21T00:28:00.744Z,0
2016-12-21T00:29:00.797Z,0
2016-12-21T00:30:00.855Z,0
2016-12-21T00:31:00.913Z,0
2016-12-21T00:32:00.964Z,0
2016-12-21T00:33:01.032Z,0
2016-12-21T00:34:01.081Z,0
2016-12-21T00:35:01.139Z,0
2016-12-21T00:36:01.192Z,0
2016-12-21T00:37:01.246Z,0
2016-12-21T00:38:01.305Z,0
2016-12-21T00:39:01.362Z,0
2016-12-21T00:40:01.428Z,0
2016-12-21T00:41:01.471Z,0
2016-12-21T00:42:01.533Z,0
2016-12-21T00:43:01.584Z,0
2016-12-21T00:44:01.646Z,0
2016-12-21T00:45:01.702Z,0
2016-12-21T00:46:01.756Z,0
2016-12-21T00:47:01.813Z,0
2016-12-21T00:48:01.869Z,0
2016-12-21T00:49:01.926Z,0
2016-12-21T00:50:01.980Z,0
2016-12-21T00:51:02.037Z,0
2016-12-21T00:52:02.100Z,0
2016-12-21T00:53:02.150Z,0
2016-12-21T00:54:02.207Z,0
2016-12-21T00:55:02.264Z,0
2016-12-21T00:56:02.321Z,0
2016-12-21T00:57:02.379Z,0
2016-12-21T00:58:02.430Z,0
2016-12-21T00:59:02.487Z,0
2016-12-21T01:00:02.549Z,0
2016-12-21T01:01:02.596Z,0
2016-12-21T01:02:02.661Z,0
2016-12-21T01:03:02.712Z,0
2016-12-21T01:04:02.869Z,0
2016-12-21T01:05:02.820Z,0
2016-12-21T01:06:02.880Z,0
2016-12-21T01:07:02.933Z,0
2016-12-21T01:08:02.993Z,0
2016-12-21T01:09:03.076Z,0
2016-12-21T01:10:03.103Z,0
2016-12-21T01:11:03.160Z,0
2016-12-21T01:12:03.215Z,0
2016-12-21T01:13:03.281Z,0
2016-12-21T01:14:03.333Z,0
2016-12-21T01:15:03.383Z,0
2016-12-21T01:16:03.441Z,0
2016-12-21T01:17:03.506Z,0
2016-12-21T01:18:03.551Z,0
2016-12-21T01:19:03.608Z,0
2016-12-21T01:20:03.700Z,0
2016-12-21T01:21:03.725Z,0
2016-12-21T01:22:03.775Z,0
2016-12-21T01:23:03.835Z,0
2016-12-21T01:24:03.892Z,0
2016-12-21T01:25:03.948Z,0
2016-12-21T01:26:04.003Z,0
2016-12-21T01:27:04.063Z,0
2016-12-21T01:28:04.116Z,0
2016-12-21T01:29:04.172Z,0
2016-12-21T01:30:04.237Z,0
2016-12-21T01:31:04.284Z,0
2016-12-21T01:32:04.344Z,0
2016-12-21T01:33:04.396Z,0
2016-12-21T01:34:04.456Z,0
2016-12-21T01:35:04.516Z,0
2016-12-21T01:36:04.569Z,0
2016-12-21T01:37:04.651Z,0
2016-12-21T01:38:04.680Z,0
2016-12-21T01:39:04.738Z,0
2016-12-21T01:40:04.793Z,0
2016-12-21T01:41:04.853Z,0
2016-12-21T01:42:04.907Z,0
2016-12-21T01:43:04.962Z,0
2016-12-21T01:44:05.020Z,0
2016-12-21T01:45:05.078Z,0
2016-12-21T01:46:05.132Z,0
2016-12-21T01:47:05.187Z,0
2016-12-21T01:48:05.246Z,0
2016-12-21T01:49:05.299Z,0
2016-12-21T01:50:05.362Z,0
2016-12-21T01:51:05.414Z,0
2016-12-21T01:52:05.471Z,0
2016-12-21T01:53:05.531Z,0
2016-12-21T01:54:05.584Z,0
2016-12-21T01:55:05.639Z,0
2016-12-21T01:56:05.695Z,0
2016-12-21T01:57:05.750Z,0
2016-12-21T01:58:05.837Z,0
2016-12-21T01:59:05.863Z,0
2016-12-21T02:00:05.921Z,0
2016-12-21T02:01:05.977Z,0
2016-12-21T02:02:06.237Z,0
2016-12-21T02:03:06.088Z,0
2016-12-21T02:04:06.143Z,0
2016-12-21T02:05:06.204Z,0
2016-12-21T02:06:06.258Z,0
2016-12-21T02:07:06.317Z,0
2016-12-21T02:08:06.370Z,0
2016-12-21T02:09:06.428Z,0
2016-12-21T02:10:06.490Z,0
2016-12-21T02:11:06.537Z,0
2016-12-21T02:12:06.597Z,0
2016-12-21T02:13:06.656Z,0
2016-12-21T02:14:06.711Z,0
2016-12-21T02:15:06.764Z,0
2016-12-21T02:16:06.820Z,0
2016-12-21T02:17:06.880Z,0
2016-12-21T02:18:06.936Z,0
2016-12-21T02:19:06.989Z,0
2016-12-21T02:20:07.052Z,0
2016-12-21T02:21:07.108Z,0
2016-12-21T02:22:07.159Z,0
2016-12-21T02:23:07.218Z,0
2016-12-21T02:24:07.274Z,0
2016-12-21T02:25:07.337Z,0
2016-12-21T02:26:07.393Z,0
2016-12-21T02:27:07.449Z,0
2016-12-21T02:28:07.504Z,0
2016-12-21T02:29:07.560Z,0
2016-12-21T02:30:07.613Z,0
2016-12-21T02:31:07.877Z,0
2016-12-21T02:32:07.931Z,0
2016-12-21T02:33:07.790Z,0
2016-12-21T02:34:07.843Z,0
2016-12-21T02:35:07.902Z,0
2016-12-21T02:36:07.969Z,0
2016-12-21T02:37:08.014Z,0
2016-12-21T02:38:08.071Z,0
2016-12-21T02:39:08.131Z,0
2016-12-21T02:40:08.183Z,0
2016-12-21T02:41:08.243Z,0
2016-12-21T02:42:08.299Z,0
2016-12-21T02:43:08.361Z,0
2016-12-21T02:44:08.411Z,0
2016-12-21T02:45:08.470Z,0
2016-12-21T02:46:08.524Z,0
2016-12-21T02:47:08.587Z,0
2016-12-21T02:48:08.641Z,0
2016-12-21T02:49:08.699Z,0
2016-12-21T02:50:08.763Z,0
2016-12-21T02:51:08.811Z,0
2016-12-21T02:52:08.868Z,0
2016-12-21T02:53:08.927Z,0
2016-12-21T02:54:08.985Z,0
2016-12-21T02:55:09.038Z,0
2016-12-21T02:56:09.609Z,0
2016-12-21T02:57:09.152Z,0
2016-12-21T02:58:09.212Z,0
2016-12-21T02:59:09.265Z,0
2016-12-21T03:00:09.323Z,0
2016-12-21T03:01:09.376Z,0
2016-12-21T03:02:09.435Z,0
2016-12-21T03:03:09.494Z,0
2016-12-21T03:04:09.547Z,0
2016-12-21T03:05:09.602Z,0
2016-12-21T03:06:09.659Z,0
2016-12-21T03:07:09.719Z,0
2016-12-21T03:08:09.777Z,0
2016-12-21T03:09:09.833Z,0
2016-12-21T03:10:09.885Z,0
2016-12-21T03:11:09.942Z,0
2016-12-21T03:12:09.997Z,0
2016-12-21T03:13:10.053Z,0
2016-12-21T03:14:10.114Z,0
2016-12-21T03:15:10.163Z,0
2016-12-21T03:16:10.222Z,0
2016-12-21T03:17:10.278Z,0
2016-12-21T03:18:10.341Z,0
2016-12-21T03:19:10.390Z,0
2016-12-21T03:20:10.445Z,0
2016-12-21T03:21:10.503Z,0
2016-12-21T03:22:10.559Z,0
2016-12-21T03:23:10.616Z,0
2016-12-21T03:24:10.674Z,0
2016-12-21T03:25:10.726Z,0
2016-12-21T03:26:10.783Z,0
2016-12-21T03:27:10.841Z,0
2016-12-21T03:28:10.896Z,0
2016-12-21T03:29:10.951Z,0
2016-12-21T03:30:11.212Z,0
2016-12-21T03:31:11.277Z,0
2016-12-21T03:32:11.175Z,0
2016-12-21T03:33:11.176Z,0
2016-12-21T03:34:11.233Z,0
2016-12-21T03:35:11.289Z,0
2016-12-21T03:36:11.349Z,0
2016-12-21T03:37:11.404Z,0
2016-12-21T03:38:11.458Z,0
2016-12-21T03:39:11.512Z,0
2016-12-21T03:40:11.573Z,0
2016-12-21T03:41:11.638Z,0
2016-12-21T03:42:11.738Z,0
2016-12-21T03:43:11.747Z,0
2016-12-21T03:44:11.800Z,0
2016-12-21T03:45:11.852Z,0
2016-12-21T03:46:11.909Z,0
2016-12-21T03:47:11.965Z,0
2016-12-21T03:48:12.019Z,0
2016-12-21T03:49:12.079Z,0
2016-12-21T03:50:12.140Z,0
2016-12-21T03:51:12.193Z,0
2016-12-21T03:52:12.247Z,0
2016-12-21T03:53:12.304Z,0
2016-12-21T03:54:12.363Z,0
2016-12-21T03:55:12.418Z,0
2016-12-21T03:56:12.477Z,0
2016-12-21T03:57:12.539Z,0
2016-12-21T03:58:12.789Z,0
2016-12-21T03:59:12.642Z,0
2016-12-21T04:00:12.907Z,0
2016-12-21T04:01:12.758Z,0
2016-12-21T04:02:12.819Z,0
2016-12-21T04:03:12.870Z,0
2016-12-21T04:04:12.926Z,0
2016-12-21T04:05:12.983Z,0
2016-12-21T04:06:13.041Z,0
2016-12-21T04:07:13.094Z,0
2016-12-21T04:08:13.154Z,0
2016-12-21T04:09:13.207Z,0
2016-12-21T04:10:13.263Z,0
2016-12-21T04:11:13.325Z,0
2016-12-21T04:12:13.379Z,0
2016-12-21T04:13:13.435Z,0
2016-12-21T04:14:13.489Z,0
2016-12-21T04:15:13.849Z,0
2016-12-21T04:16:13.601Z,0
2016-12-21T04:17:13.657Z,0
2016-12-21T04:18:13.714Z,0
2016-12-21T04:19:13.799Z,0
2016-12-21T04:20:13.827Z,0
2016-12-21T04:21:13.882Z,0
2016-12-21T04:22:13.942Z,0
2016-12-21T04:23:13.998Z,0
2016-12-21T04:24:14.050Z,0
2016-12-21T04:25:14.112Z,0
2016-12-21T04:26:14.159Z,0
2016-12-21T04:27:14.418Z,0
2016-12-21T04:28:14.277Z,0
2016-12-21T04:29:14.331Z,0
2016-12-21T04:30:14.386Z,0
2016-12-21T04:31:14.453Z,0
2016-12-21T04:32:14.540Z,0
2016-12-21T04:33:14.558Z,0
2016-12-21T04:34:14.612Z,0
2016-12-21T04:35:14.669Z,0
2016-12-21T04:36:14.723Z,0
2016-12-21T04:37:14.778Z,0
2016-12-21T04:38:14.841Z,0
2016-12-21T04:39:14.893Z,0
2016-12-21T04:40:14.949Z,0
2016-12-21T04:41:15.028Z,0
2016-12-21T04:42:15.064Z,0
2016-12-21T04:43:15.118Z,0
2016-12-21T04:44:15.177Z,0
2016-12-21T04:45:15.236Z,0
2016-12-21T04:46:15.288Z,0
2016-12-21T04:47:15.343Z,0
2016-12-21T04:48:15.432Z,0
2016-12-21T04:49:15.461Z,0
2016-12-21T04:50:15.517Z,0
2016-12-21T04:51:15.572Z,0
2016-12-21T04:52:15.628Z,0
2016-12-21T04:53:15.988Z,0
2016-12-21T04:54:15.737Z,0
2016-12-21T04:55:15.797Z,0
2016-12-21T04:56:15.851Z,0
2016-12-21T04:57:15.909Z,0
2016-12-21T04:58:15.968Z,0
2016-12-21T04:59:16.043Z,0
2016-12-21T05:00:16.076Z,0
2016-12-21T05:01:16.164Z,0
2016-12-21T05:02:16.191Z,0
2016-12-21T05:03:16.247Z,0
2016-12-21T05:04:16.301Z,0
2016-12-21T05:05:16.358Z,0
2016-12-21T05:06:16.414Z,0
2016-12-21T05:07:16.470Z,0
2016-12-21T05:08:16.526Z,0
2016-12-21T05:09:16.612Z,0
2016-12-21T05:10:16.642Z,0
2016-12-21T05:11:16.693Z,0
2016-12-21T05:12:16.751Z,0
2016-12-21T05:13:16.807Z,0
2016-12-21T05:14:16.864Z,0
2016-12-21T05:15:16.923Z,0
2016-12-21T05:16:16.975Z,0
2016-12-21T05:17:17.028Z,0
2016-12-21T05:18:17.086Z,0
2016-12-21T05:19:17.144Z,0
2016-12-21T05:20:17.196Z,0
2016-12-21T05:21:17.288Z,0
2016-12-21T05:22:17.310Z,0
2016-12-21T05:23:17.368Z,0
2016-12-21T05:24:17.424Z,0
2016-12-21T05:25:17.475Z,0
2016-12-21T05:26:17.535Z,0
2016-12-21T05:27:17.623Z,0
2016-12-21T05:28:17.643Z,0
2016-12-21T05:29:17.701Z,0
2016-12-21T05:30:17.755Z,0
2016-12-21T05:31:17.813Z,0
2016-12-21T05:32:17.868Z,0
2016-12-21T05:33:17.946Z,0
2016-12-21T05:34:17.983Z,0
2016-12-21T05:35:18.033Z,0
2016-12-21T05:36:18.092Z,0
2016-12-21T05:37:18.146Z,0
2016-12-21T05:38:18.202Z,0
2016-12-21T05:39:18.257Z,0
2016-12-21T05:40:18.315Z,0
2016-12-21T05:41:18.371Z,0
2016-12-21T05:42:18.433Z,0
2016-12-21T05:43:18.483Z,0
2016-12-21T05:44:18.538Z,0
2016-12-21T05:45:18.598Z,0
2016-12-21T05:46:18.657Z,0
2016-12-21T05:47:18.708Z,0
2016-12-21T05:48:18.766Z,0
2016-12-21T05:49:18.820Z,0
2016-12-21T05:50:18.878Z,0
2016-12-21T05:51:18.931Z,0
2016-12-21T05:52:18.986Z,0
2016-12-21T05:53:19.051Z,0
2016-12-21T05:54:19.106Z,0
2016-12-21T05:55:19.160Z,0
2016-12-21T05:56:19.214Z,0
2016-12-21T05:57:19.272Z,0
2016-12-21T05:58:19.325Z,0
2016-12-21T05:59:19.384Z,0
2016-12-21T06:00:19.443Z,0
2016-12-21T06:01:19.502Z,0
2016-12-21T06:02:19.548Z,0
2016-12-21T06:03:19.611Z,0
2016-12-21T06:04:19.669Z,0
2016-12-21T06:05:19.722Z,0
2016-12-21T06:06:19.779Z,0
2016-12-21T06:07:19.837Z,0
2016-12-21T06:08:19.891Z,0
2016-12-21T06:09:19.952Z,0
2016-12-21T06:10:20.006Z,0
2016-12-21T06:11:20.067Z,0
2016-12-21T06:12:20.122Z,0
2016-12-21T06:13:20.172Z,0
2016-12-21T06:14:20.238Z,0
2016-12-21T06:15:20.288Z,0
2016-12-21T06:16:20.342Z,0
2016-12-21T06:17:20.399Z,0
2016-12-21T06:18:20.460Z,0
2016-12-21T06:19:20.516Z,0
2016-12-21T06:20:20.577Z,0
2016-12-21T06:21:20.630Z,0
2016-12-21T06:22:20.685Z,0
2016-12-21T06:23:20.744Z,0
2016-12-21T06:24:20.796Z,0
2016-12-21T06:25:20.852Z,0
2016-12-21T06:26:20.912Z,4
2016-12-21T06:27:21.271Z,4
2016-12-21T06:28:21.024Z,0
2016-12-21T06:29:21.083Z,0
2016-12-21T06:30:21.145Z,4
2016-12-21T06:31:21.195Z,4
2016-12-21T06:32:21.251Z,4
2016-12-21T06:33:21.311Z,4
2016-12-21T06:34:21.369Z,4
2016-12-21T06:35:21.428Z,8
2016-12-21T06:36:21.484Z,8
2016-12-21T06:37:21.540Z,8
2016-12-21T06:38:21.597Z,8
2016-12-21T06:39:21.648Z,12
2016-12-21T06:40:21.711Z,12
2016-12-21T06:41:21.770Z,16
2016-12-21T06:42:21.822Z,20
2016-12-21T06:43:21.917Z,20
2016-12-21T06:44:21.940Z,24
2016-12-21T06:45:21.997Z,28
2016-12-21T06:46:22.054Z,32
2016-12-21T06:47:22.110Z,36
2016-12-21T06:48:22.171Z,44
2016-12-21T06:49:22.226Z,48
2016-12-21T06:50:22.280Z,52
2016-12-21T06:51:22.342Z,56
2016-12-21T06:52:22.402Z,64
2016-12-21T06:53:22.458Z,72
2016-12-21T06:54:22.517Z,80
2016-12-21T06:55:22.571Z,88
2016-12-21T06:56:22.628Z,100
2016-12-21T06:57:22.685Z,108
2016-12-21T06:58:22.746Z,116
2016-12-21T06:59:22.800Z,124
2016-12-21T07:00:22.861Z,140
2016-12-21T07:01:23.115Z,148
2016-12-21T07:02:23.277Z,160
2016-12-21T07:03:23.025Z,176
2016-12-21T07:04:23.085Z,196
2016-12-21T07:05:23.143Z,212
2016-12-21T07:06:23.200Z,236
2016-12-21T07:07:23.254Z,256
2016-12-21T07:08:23.311Z,268
2016-12-21T07:09:23.370Z,288
2016-12-21T07:10:23.429Z,304
2016-12-21T07:11:23.481Z,328
2016-12-21T07:12:23.536Z,348
2016-12-21T07:13:23.597Z,368
2016-12-21T07:14:23.649Z,388
2016-12-21T07:15:23.707Z,416
2016-12-21T07:16:23.766Z,436
2016-12-21T07:17:23.820Z,452
2016-12-21T07:18:23.878Z,472
2016-12-21T07:19:23.930Z,492
2016-12-21T07:20:23.995Z,512
2016-12-21T07:21:24.049Z,532
2016-12-21T07:22:24.100Z,552
2016-12-21T07:23:24.157Z,572
2016-12-21T07:24:24.216Z,588
2016-12-21T07:25:24.273Z,608
2016-12-21T07:26:24.330Z,628
2016-12-21T07:27:24.386Z,648
2016-12-21T07:28:24.445Z,668
2016-12-21T07:29:24.497Z,688
2016-12-21T07:30:24.552Z,712
2016-12-21T07:31:24.609Z,732
2016-12-21T07:32:24.665Z,748
2016-12-21T07:33:24.724Z,764
2016-12-21T07:34:24.775Z,784
2016-12-21T07:35:24.836Z,800
2016-12-21T07:36:24.891Z,816
2016-12-21T07:37:24.955Z,836
2016-12-21T07:38:25.005Z,852
2016-12-21T07:39:25.060Z,868
2016-12-21T07:40:25.427Z,884
2016-12-21T07:41:25.178Z,904
2016-12-21T07:42:25.232Z,920
2016-12-21T07:43:25.288Z,936
2016-12-21T07:44:25.346Z,956
2016-12-21T07:45:25.406Z,984
2016-12-21T07:46:25.461Z,992
2016-12-21T07:47:25.514Z,1004
2016-12-21T07:48:25.574Z,1020
2016-12-21T07:49:25.630Z,1036
2016-12-21T07:50:25.687Z,1048
2016-12-21T07:51:25.740Z,1064
2016-12-21T07:52:25.803Z,1080
2016-12-21T07:53:25.857Z,1096
2016-12-21T07:54:25.914Z,1108
2016-12-21T07:55:25.970Z,1124
2016-12-21T07:56:26.028Z,1128
2016-12-21T07:57:26.089Z,1136
2016-12-21T07:58:26.138Z,1144
2016-12-21T07:59:26.198Z,1156
2016-12-21T08:00:26.260Z,1176
2016-12-21T08:01:26.311Z,1180
2016-12-21T08:02:26.417Z,1188
2016-12-21T08:03:26.424Z,1204
2016-12-21T08:04:26.482Z,1220
2016-12-21T08:05:26.539Z,1232
2016-12-21T08:06:26.596Z,1244
2016-12-21T08:07:26.704Z,1256
2016-12-21T08:08:26.711Z,1268
2016-12-21T08:09:26.768Z,1284
2016-12-21T08:10:26.829Z,1300
2016-12-21T08:11:26.881Z,1316
2016-12-21T08:12:26.936Z,1328
2016-12-21T08:13:26.991Z,1344
2016-12-21T08:14:27.056Z,1360
2016-12-21T08:15:27.108Z,1384
2016-12-21T08:16:27.167Z,1384
2016-12-21T08:17:27.224Z,1396
2016-12-21T08:18:27.281Z,1408
2016-12-21T08:19:27.334Z,1428
2016-12-21T08:20:27.395Z,1444
2016-12-21T08:21:27.453Z,1460
2016-12-21T08:22:27.504Z,1476
2016-12-21T08:23:27.565Z,1492
2016-12-21T08:24:27.622Z,1504
2016-12-21T08:25:27.678Z,1516
2016-12-21T08:26:27.732Z,1528
2016-12-21T08:27:27.789Z,1540
2016-12-21T08:28:27.846Z,1552
2016-12-21T08:29:27.902Z,1556
2016-12-21T08:30:27.962Z,1584
2016-12-21T08:31:28.018Z,1580
2016-12-21T08:32:28.075Z,1572
2016-12-21T08:33:28.136Z,1572
2016-12-21T08:34:28.191Z,1564
2016-12-21T08:35:28.248Z,1560
2016-12-21T08:36:28.299Z,1572
2016-12-21T08:37:28.360Z,1596
2016-12-21T08:38:28.410Z,1616
2016-12-21T08:39:28.469Z,1636
2016-12-21T08:40:28.524Z,1656
2016-12-21T08:41:28.585Z,1684
2016-12-21T08:42:28.639Z,1708
2016-12-21T08:43:28.695Z,1744
2016-12-21T08:44:28.756Z,1788
2016-12-21T08:45:28.809Z,1832
2016-12-21T08:46:28.872Z,1844
2016-12-21T08:47:28.921Z,1860
2016-12-21T08:48:28.989Z,1880
2016-12-21T08:49:29.034Z,1900
2016-12-21T08:50:29.091Z,1916
2016-12-21T08:51:29.151Z,1936
2016-12-21T08:52:29.212Z,1956
2016-12-21T08:53:29.260Z,1980
2016-12-21T08:54:29.320Z,2004
2016-12-21T08:55:29.378Z,2028
2016-12-21T08:56:29.435Z,2052
2016-12-21T08:57:29.485Z,2076
2016-12-21T08:58:29.550Z,2100
2016-12-21T08:59:29.601Z,2132
2016-12-21T09:00:29.660Z,2176
2016-12-21T09:01:29.715Z,2196
2016-12-21T09:02:29.773Z,2228
2016-12-21T09:03:29.829Z,2264
2016-12-21T09:04:29.885Z,2304
2016-12-21T09:05:29.941Z,2348
2016-12-21T09:06:30.031Z,2388
2016-12-21T09:07:30.062Z,2436
2016-12-21T09:08:30.111Z,2484
2016-12-21T09:09:30.170Z,2544
2016-12-21T09:10:30.227Z,2612
2016-12-21T09:11:30.282Z,2680
2016-12-21T09:12:30.338Z,2752
2016-12-21T09:13:30.397Z,2848
2016-12-21T09:14:30.451Z,2956
2016-12-21T09:15:30.508Z,3108
2016-12-21T09:16:30.566Z,3264
2016-12-21T09:17:30.625Z,3508
2016-12-21T09:18:30.683Z,3896
2016-12-21T09:19:30.742Z,4832
2016-12-21T09:20:30.791Z,19776
2016-12-21T09:21:30.854Z,39968
2016-12-21T09:22:30.908Z,46176
2016-12-21T09:23:30.963Z,45216
2016-12-21T09:24:31.022Z,48608
2016-12-21T09:25:31.078Z,49536
2016-12-21T09:26:31.134Z,49088
2016-12-21T09:27:31.188Z,48800
2016-12-21T09:28:31.246Z,45856
2016-12-21T09:29:31.300Z,45248
2016-12-21T09:30:31.367Z,48256
2016-12-21T09:31:31.422Z,50720
2016-12-21T09:32:31.483Z,50784
2016-12-21T09:33:31.533Z,49792
2016-12-21T09:34:31.593Z,50752
2016-12-21T09:35:31.647Z,50336
2016-12-21T09:36:31.709Z,51136
2016-12-21T09:37:31.757Z,52064
2016-12-21T09:38:31.821Z,52192
2016-12-21T09:39:31.876Z,50432
2016-12-21T09:40:31.931Z,50400
2016-12-21T09:41:31.989Z,49056
2016-12-21T09:42:32.047Z,49760
2016-12-21T09:43:32.104Z,46432
2016-12-21T09:44:32.157Z,42432
2016-12-21T09:45:32.253Z,46528
2016-12-21T09:46:32.273Z,50848
2016-12-21T09:47:32.330Z,49248
2016-12-21T09:48:32.415Z,42784
2016-12-21T09:49:32.442Z,35584
2016-12-21T09:50:32.504Z,29088
2016-12-21T09:51:32.561Z,26240
2016-12-21T09:52:32.618Z,26752
2016-12-21T09:53:32.678Z,26528
2016-12-21T09:54:32.783Z,28960
2016-12-21T09:55:32.789Z,33184
2016-12-21T09:56:32.844Z,39136
2016-12-21T09:57:32.901Z,46656
2016-12-21T09:58:32.966Z,51360
2016-12-21T09:59:33.018Z,55328
2016-12-21T10:00:33.074Z,58880
2016-12-21T10:01:33.133Z,57344
2016-12-21T10:02:33.195Z,56576
2016-12-21T10:03:33.247Z,54720
2016-12-21T10:04:33.304Z,54336
2016-12-21T10:05:33.360Z,53536
2016-12-21T10:06:33.422Z,52320
2016-12-21T10:07:33.478Z,50432
2016-12-21T10:08:33.531Z,52512
2016-12-21T10:09:33.590Z,54336
2016-12-21T10:10:33.648Z,54176
2016-12-21T10:11:33.705Z,53568
2016-12-21T10:12:33.791Z,54016
2016-12-21T10:13:33.823Z,54368
2016-12-21T10:14:33.877Z,56192
2016-12-21T10:15:33.935Z,56960
2016-12-21T10:16:33.996Z,58816
2016-12-21T10:17:34.050Z,58592
2016-12-21T10:18:34.111Z,58240
2016-12-21T10:19:34.166Z,59200
2016-12-21T10:20:34.230Z,60256
2016-12-21T10:21:34.283Z,61952
2016-12-21T10:22:34.342Z,61152
2016-12-21T10:23:34.400Z,59520
2016-12-21T10:24:34.458Z,58720
2016-12-21T10:25:34.515Z,58880
2016-12-21T10:26:34.573Z,60256
2016-12-21T10:27:34.630Z,61664
2016-12-21T10:28:34.691Z,58816
2016-12-21T10:29:34.751Z,58304
2016-12-21T10:30:34.818Z,58912
2016-12-21T10:31:34.865Z,59840
2016-12-21T10:32:35.227Z,60608
2016-12-21T10:33:34.980Z,57920
2016-12-21T10:34:35.041Z,57984
2016-12-21T10:35:35.103Z,56480
2016-12-21T10:36:35.157Z,55200
2016-12-21T10:37:35.219Z,57344
2016-12-21T10:38:35.273Z,59072
2016-12-21T10:39:35.329Z,59328
2016-12-21T10:40:35.398Z,58624
2016-12-21T10:41:35.447Z,57472
2016-12-21T10:42:35.510Z,59328
2016-12-21T10:43:35.567Z,58912
2016-12-21T10:44:35.629Z,58304
2016-12-21T10:45:35.722Z,60096
2016-12-21T10:46:35.741Z,58528
2016-12-21T10:47:35.798Z,57600
2016-12-21T10:48:35.864Z,56608
2016-12-21T10:49:35.920Z,58848
2016-12-21T10:50:35.975Z,59264
2016-12-21T10:51:36.034Z,59936
2016-12-21T10:52:36.093Z,58816
2016-12-21T10:53:36.151Z,60352
2016-12-21T10:54:36.209Z,59648
2016-12-21T10:55:36.274Z,59296
2016-12-21T10:56:36.323Z,57248
2016-12-21T10:57:36.386Z,56096
2016-12-21T10:58:36.441Z,60320
2016-12-21T10:59:36.499Z,62496
2016-12-21T11:00:36.558Z,60800
2016-12-21T11:01:36.615Z,60160
2016-12-21T11:02:36.674Z,61600
2016-12-21T11:03:36.736Z,59872
2016-12-21T11:04:36.796Z,58944
2016-12-21T11:05:36.848Z,58464
2016-12-21T11:06:37.223Z,59072
2016-12-21T11:07:36.963Z,58720
2016-12-21T11:08:37.018Z,58272
2016-12-21T11:09:37.081Z,59776
2016-12-21T11:10:37.136Z,63648
2016-12-21T11:11:37.225Z,62048
2016-12-21T11:12:37.253Z,63168
2016-12-21T11:13:37.308Z,65376
2016-12-21T11:14:37.364Z,63680
2016-12-21T11:15:37.424Z,62560
2016-12-21T11:16:37.481Z,61248
2016-12-21T11:17:37.541Z,59744
2016-12-21T11:18:37.595Z,58464
2016-12-21T11:19:37.652Z,58720
2016-12-21T11:20:37.716Z,60736
2016-12-21T11:21:37.767Z,61664
2016-12-21T11:22:37.823Z,62144
2016-12-21T11:23:37.885Z,61024
2016-12-21T11:24:37.943Z,60256
2016-12-21T11:25:37.998Z,60192
2016-12-21T11:26:38.054Z,60832
2016-12-21T11:27:38.111Z,59968
2016-12-21T11:28:38.171Z,59392
2016-12-21T11:29:38.226Z,59648
2016-12-21T11:30:38.284Z,59392
2016-12-21T11:31:38.341Z,59296
2016-12-21T11:32:38.399Z,61344
2016-12-21T11:33:38.462Z,63040
2016-12-21T11:34:38.509Z,62048
2016-12-21T11:35:38.567Z,61184
2016-12-21T11:36:38.828Z,59680
2016-12-21T11:37:38.683Z,60064
2016-12-21T11:38:38.742Z,61472
2016-12-21T11:39:38.797Z,61472
2016-12-21T11:40:38.858Z,60288
2016-12-21T11:41:38.910Z,60352
2016-12-21T11:42:38.971Z,62304
2016-12-21T11:43:39.028Z,63136
2016-12-21T11:44:39.087Z,60352
2016-12-21T11:45:39.143Z,62048
2016-12-21T11:46:39.198Z,66848
2016-12-21T11:47:39.261Z,63072
2016-12-21T11:48:39.313Z,62976
2016-12-21T11:49:39.374Z,63232
2016-12-21T11:50:39.427Z,62656
2016-12-21T11:51:39.486Z,65440
2016-12-21T11:52:39.542Z,65120
2016-12-21T11:53:39.602Z,64544
2016-12-21T11:54:39.655Z,66688
2016-12-21T11:55:39.714Z,61536
2016-12-21T11:56:39.776Z,64128
2016-12-21T11:57:39.827Z,57184
2016-12-21T11:58:39.888Z,53408
2016-12-21T11:59:39.950Z,49664
2016-12-21T12:00:39.999Z,45568
2016-12-21T12:01:40.052Z,42784
2016-12-21T12:02:40.119Z,37760
2016-12-21T12:03:40.178Z,35680
2016-12-21T12:04:40.224Z,34240
2016-12-21T12:05:40.283Z,37888
2016-12-21T12:06:40.340Z,41472
2016-12-21T12:07:40.397Z,48480
2016-12-21T12:08:40.456Z,54368
2016-12-21T12:09:40.812Z,60544
2016-12-21T12:10:40.568Z,63552
2016-12-21T12:11:40.625Z,64544
2016-12-21T12:12:40.693Z,63872
2016-12-21T12:13:40.745Z,65408
2016-12-21T12:14:40.799Z,63040
2016-12-21T12:15:40.857Z,63072
2016-12-21T12:16:40.910Z,58208
2016-12-21T12:17:40.971Z,58144
2016-12-21T12:18:41.028Z,63072
2016-12-21T12:19:41.082Z,61440
2016-12-21T12:20:41.140Z,62176
2016-12-21T12:21:41.198Z,62144
2016-12-21T12:22:41.256Z,58784
2016-12-21T12:23:41.320Z,59456
2016-12-21T12:24:41.371Z,55744
2016-12-21T12:25:41.426Z,50816
2016-12-21T12:26:41.490Z,51104
2016-12-21T12:27:41.541Z,51808
2016-12-21T12:28:41.601Z,52224
2016-12-21T12:29:41.662Z,53024
2016-12-21T12:30:41.716Z,60096
2016-12-21T12:31:41.771Z,59232
2016-12-21T12:32:41.827Z,58016
2016-12-21T12:33:41.884Z,61472
2016-12-21T12:34:41.945Z,59232
2016-12-21T12:35:42.002Z,57984
2016-12-21T12:36:42.061Z,55840
2016-12-21T12:37:42.116Z,60768
2016-12-21T12:38:42.176Z,61856
2016-12-21T12:39:42.227Z,55616
2016-12-21T12:40:42.288Z,57024
2016-12-21T12:41:42.347Z,61664
2016-12-21T12:42:42.401Z,60736
2016-12-21T12:43:42.458Z,60800
2016-12-21T12:44:42.818Z,58816
2016-12-21T12:45:42.574Z,55360
2016-12-21T12:46:42.635Z,59488
2016-12-21T12:47:42.699Z,54880
2016-12-21T12:48:42.744Z,53088
2016-12-21T12:49:42.802Z,53600
2016-12-21T12:50:42.864Z,51360
2016-12-21T12:51:42.918Z,53504
2016-12-21T12:52:42.974Z,50080
2016-12-21T12:53:43.043Z,53856
2016-12-21T12:54:43.089Z,52576
2016-12-21T12:55:43.148Z,49152
2016-12-21T12:56:43.204Z,53056
2016-12-21T12:57:43.263Z,49728
2016-12-21T12:58:43.321Z,49888
2016-12-21T12:59:43.375Z,50560
2016-12-21T13:00:43.431Z,46784
2016-12-21T13:01:43.500Z,44992
2016-12-21T13:02:43.546Z,44512
2016-12-21T13:03:43.609Z,43936
2016-12-21T13:04:43.660Z,46880
2016-12-21T13:05:43.719Z,47680
2016-12-21T13:06:43.778Z,47712
2016-12-21T13:07:43.833Z,48448
2016-12-21T13:08:43.894Z,46528
2016-12-21T13:09:43.949Z,48928
2016-12-21T13:10:44.006Z,52416
2016-12-21T13:11:44.063Z,50176
2016-12-21T13:12:44.122Z,48704
2016-12-21T13:13:44.173Z,45216
2016-12-21T13:14:44.232Z,42272
2016-12-21T13:15:44.291Z,40928
2016-12-21T13:16:44.344Z,40960
2016-12-21T13:17:44.405Z,42624
2016-12-21T13:18:44.459Z,38656
2016-12-21T13:19:44.520Z,37056
2016-12-21T13:20:44.579Z,39328
2016-12-21T13:21:44.633Z,39040
2016-12-21T13:22:44.694Z,36640
2016-12-21T13:23:44.799Z,36928
2016-12-21T13:24:44.807Z,39264
2016-12-21T13:25:44.861Z,40768
2016-12-21T13:26:44.930Z,39648
2016-12-21T13:27:44.979Z,39744
2016-12-21T13:28:45.137Z,40256
2016-12-21T13:29:45.090Z,38560
2016-12-21T13:30:45.149Z,39104
2016-12-21T13:31:45.208Z,36000
2016-12-21T13:32:45.260Z,36384
2016-12-21T13:33:45.321Z,39968
2016-12-21T13:34:45.376Z,42432
2016-12-21T13:35:45.436Z,46912
2016-12-21T13:36:45.491Z,49088
2016-12-21T13:37:45.552Z,38976
2016-12-21T13:38:45.606Z,37024
2016-12-21T13:39:45.668Z,35904
2016-12-21T13:40:45.724Z,33856
2016-12-21T13:41:45.784Z,28000
2016-12-21T13:42:45.837Z,25760
2016-12-21T13:43:45.897Z,26336
2016-12-21T13:44:45.950Z,27392
2016-12-21T13:45:46.014Z,27840
2016-12-21T13:46:46.065Z,27200
2016-12-21T13:47:46.123Z,27168
2016-12-21T13:48:46.183Z,27520
2016-12-21T13:49:46.238Z,28448
2016-12-21T13:50:46.294Z,29056
2016-12-21T13:51:46.352Z,26656
2016-12-21T13:52:46.409Z,25216